Jiu Hua San — 9VBK2 — position and weather

sailwx.info

Track history (hours):
 
Tides and Currents Weather Stations Pressure Air Temp Water Temp Dewpoint Dewpoint Depression Visibility Wind Speed Wind Dir Waves Ship Positions

Jiu Hua San

Last reported at 2016-Jul-18 00:04 UTC. Time now 2016-Jul-28 14:36 UTC.
Position N 02°03' E 102°08'.
Warning: this ship's position is 10 days out of date.

Length 333 m; draft 12 m.

Type: Ship. MMSI: 565914000.

Date/timePositionNaut miles runAvg speedWind from/ knotsBaromVisibWave heightAir tempDewpointWater temp
2016-Jul-18 00:04N 02°03' E 102°08'814.0
2016-Jul-17 23:32N 01°58' E 102°14'1414.1
2016-Jul-17 22:33N 01°52' E 102°26'1514.5
2016-Jul-17 21:33N 01°46' E 102°39'6314.8
2016-Jul-17 17:18N 01°14' E 103°34'2 2.2
2016-Jul-17 16:32N 01°14' E 103°35'0 0.0
2016-Jul-17 15:34N 01°14' E 103°35'0 0.1
2016-Jul-17 14:33N 01°14' E 103°35'0 0.0
2016-Jul-17 13:33N 01°14' E 103°35'0 0.1
2016-Jul-17 12:33N 01°14' E 103°35'0 0.1
2016-Jul-17 11:27N 01°14' E 103°35'0 0.0
2016-Jul-17 06:16N 01°14' E 103°35'0 0.0
2016-Jul-17 03:33N 01°14' E 103°35'0 0.1
2016-Jul-17 02:34N 01°14' E 103°35'0 0.0
2016-Jul-17 01:33N 01°14' E 103°35'0 0.0
2016-Jul-17 00:33N 01°14' E 103°35'0 0.2
2016-Jul-16 23:33N 01°14' E 103°35'0 0.2
2016-Jul-16 22:34N 01°14' E 103°35'2 1.5
2016-Jul-16 21:33N 01°13' E 103°36'5 4.9
2016-Jul-16 20:33N 01°10' E 103°40'9 8.7
2016-Jul-16 19:34N 01°11' E 103°49'1010.2
2016-Jul-16 18:34N 01°15' E 103°58'1110.8
2016-Jul-16 17:33N 01°17' E 104°09'1210.2
2016-Jul-16 16:22N 01°20' E 104°21'  
Track history (hours):
 
Tides and Currents Weather Stations Pressure Air Temp Water Temp Dewpoint Dewpoint Depression Visibility Wind Speed Wind Dir Waves Ship Positions

Jiu Hua San

Last reported at 2016-Jul-18 00:04 UTC. Time now 2016-Jul-28 14:36 UTC.
Position N 02°03' E 102°08'.
Warning: this ship's position is 10 days out of date.

Length 333 m; draft 12 m.

Type: Ship. MMSI: 565914000.

Date/timePositionNaut miles runAvg speedWind from/ knotsBaromVisibWave heightAir tempDewpointWater temp
2016-Jul-18 00:04N 02°03' E 102°08'814.0
2016-Jul-17 23:32N 01°58' E 102°14'1414.1
2016-Jul-17 22:33N 01°52' E 102°26'1514.5
2016-Jul-17 21:33N 01°46' E 102°39'6314.8
2016-Jul-17 17:18N 01°14' E 103°34'2 2.2
2016-Jul-17 16:32N 01°14' E 103°35'0 0.0
2016-Jul-17 15:34N 01°14' E 103°35'0 0.1
2016-Jul-17 14:33N 01°14' E 103°35'0 0.0
2016-Jul-17 13:33N 01°14' E 103°35'0 0.1
2016-Jul-17 12:33N 01°14' E 103°35'0 0.1
2016-Jul-17 11:27N 01°14' E 103°35'0 0.0
2016-Jul-17 06:16N 01°14' E 103°35'0 0.0
2016-Jul-17 03:33N 01°14' E 103°35'0 0.1
2016-Jul-17 02:34N 01°14' E 103°35'0 0.0
2016-Jul-17 01:33N 01°14' E 103°35'0 0.0
2016-Jul-17 00:33N 01°14' E 103°35'0 0.2
2016-Jul-16 23:33N 01°14' E 103°35'0 0.2
2016-Jul-16 22:34N 01°14' E 103°35'2 1.5
2016-Jul-16 21:33N 01°13' E 103°36'5 4.9
2016-Jul-16 20:33N 01°10' E 103°40'9 8.7
2016-Jul-16 19:34N 01°11' E 103°49'1010.2
2016-Jul-16 18:34N 01°15' E 103°58'1110.8
2016-Jul-16 17:33N 01°17' E 104°09'1210.2
2016-Jul-16 16:22N 01°20' E 104°21'  

Dump ship's entire track history